Time;durP1;ratioP1;P1;durP2;ratioP2;P2;SDS_P1;SDS_P2;PMS_P1;PMS_P2;Temp;Humidity;BMP_temperature;BMP_pressure;BME280_temperature;BME280_humidity;BME280_pressure;Samples;Min_cycle;Max_cycle;Signal;HPM_P1;HPM_P2
2021/07/31 00:01:27;;;;;;;0.97;0.80;;;17.30;99.90;;;;;;5034059;28;20283;-70
2021/07/31 00:03:52;;;;;;;1.60;0.87;;;17.30;99.90;;;;;;5033453;28;20877;-70
2021/07/31 00:06:18;;;;;;;2.53;0.97;;;17.30;99.90;;;;;;5033400;28;20248;-70
2021/07/31 00:08:43;;;;;;;1.17;0.83;;;17.30;99.90;;;;;;5033341;28;20294;-70
2021/07/31 00:11:11;;;;;;;1.17;0.93;;;17.30;99.90;;;;;;5035659;28;20607;-70
2021/07/31 00:13:37;;;;;;;1.33;1.00;;;17.20;99.90;;;;;;5033251;28;20184;-71
2021/07/31 00:16:03;;;;;;;3.30;1.00;;;17.20;99.90;;;;;;5033720;28;20402;-71
2021/07/31 00:18:29;;;;;;;1.53;1.03;;;17.20;99.90;;;;;;5033617;28;20464;-70
2021/07/31 00:20:57;;;;;;;1.00;0.80;;;17.10;99.90;;;;;;5033176;28;20483;-70
2021/07/31 00:23:26;;;;;;;5.40;1.57;;;17.10;99.90;;;;;;5033117;28;20168;-70
2021/07/31 00:25:53;;;;;;;1.23;1.13;;;17.10;99.90;;;;;;5035287;28;20873;-71
2021/07/31 00:28:19;;;;;;;5.50;1.27;;;17.10;99.90;;;;;;5032855;28;20448;-70
2021/07/31 00:30:44;;;;;;;7.40;1.13;;;17.10;99.90;;;;;;5032742;28;20522;-70
2021/07/31 00:33:10;;;;;;;0.60;0.60;;;17.10;99.90;;;;;;5033313;28;20173;-70
2021/07/31 00:35:35;;;;;;;1.73;1.10;;;17.10;99.90;;;;;;5033392;28;20529;-70
2021/07/31 00:38:01;;;;;;;2.00;1.17;;;17.00;99.90;;;;;;5032826;28;20542;-70
2021/07/31 00:40:27;;;;;;;1.53;0.87;;;17.10;99.90;;;;;;5035132;28;20502;-70
2021/07/31 00:42:53;;;;;;;0.80;0.80;;;17.10;99.90;;;;;;5032748;28;20170;-70
2021/07/31 00:45:19;;;;;;;5.17;1.20;;;17.10;99.90;;;;;;5032723;28;20185;-71
2021/07/31 00:47:44;;;;;;;2.70;1.10;;;17.10;99.90;;;;;;5032911;28;20498;-70
2021/07/31 00:50:11;;;;;;;1.10;1.00;;;17.10;99.90;;;;;;5033185;28;20519;-70
2021/07/31 00:52:38;;;;;;;1.67;1.33;;;17.10;99.90;;;;;;5033293;28;20419;-70
2021/07/31 00:55:08;;;;;;;0.80;0.80;;;17.00;99.90;;;;;;5035118;28;20392;-70
2021/07/31 00:57:36;;;;;;;0.97;0.93;;;17.00;99.90;;;;;;5032530;28;20427;-70
2021/07/31 01:00:02;;;;;;;2.60;1.30;;;17.00;99.90;;;;;;5032518;28;20427;-71
2021/07/31 01:02:28;;;;;;;1.60;1.00;;;17.00;99.90;;;;;;5032346;28;20392;-70
2021/07/31 01:04:53;;;;;;;1.90;1.00;;;17.00;99.90;;;;;;5032498;28;20398;-70
2021/07/31 01:07:19;;;;;;;1.63;1.03;;;17.00;99.90;;;;;;5033260;28;20576;-70
2021/07/31 01:09:45;;;;;;;1.73;1.10;;;17.00;99.90;;;;;;5033938;28;20191;-70
2021/07/31 01:12:10;;;;;;;4.77;0.90;;;17.00;99.90;;;;;;5032406;28;20614;-70
2021/07/31 01:14:36;;;;;;;2.20;1.17;;;17.00;99.90;;;;;;5032399;28;20157;-70
2021/07/31 01:17:02;;;;;;;2.17;1.10;;;17.00;99.90;;;;;;5032435;28;20795;-70
2021/07/31 01:19:27;;;;;;;1.10;1.00;;;17.00;99.90;;;;;;5032464;28;20160;-70
2021/07/31 01:21:53;;;;;;;0.93;0.80;;;17.00;99.90;;;;;;5033131;28;20181;-70
2021/07/31 01:24:18;;;;;;;1.37;0.87;;;17.00;99.90;;;;;;5034073;28;20185;-70
2021/07/31 01:26:47;;;;;;;1.87;1.13;;;17.00;99.90;;;;;;5032805;28;20542;-71
2021/07/31 01:29:14;;;;;;;1.53;0.77;;;17.00;99.90;;;;;;5032257;28;20248;-70
2021/07/31 01:31:41;;;;;;;4.83;1.00;;;17.00;99.90;;;;;;5032256;28;20399;-70
2021/07/31 01:34:06;;;;;;;1.10;1.00;;;17.00;99.90;;;;;;5032215;28;20387;-70
2021/07/31 01:36:32;;;;;;;4.90;1.30;;;17.00;99.90;;;;;;5032820;28;20418;-70
2021/07/31 01:38:59;;;;;;;1.80;1.23;;;17.00;99.90;;;;;;5033635;28;20203;-70
2021/07/31 01:41:25;;;;;;;2.70;1.23;;;17.10;99.90;;;;;;5032658;28;20176;-70
2021/07/31 01:43:51;;;;;;;1.87;1.10;;;17.10;99.90;;;;;;5032817;28;20506;-70
2021/07/31 01:46:18;;;;;;;2.70;1.17;;;17.10;99.90;;;;;;5032182;28;20433;-70
2021/07/31 01:48:43;;;;;;;2.77;1.20;;;17.00;99.90;;;;;;5032007;28;20818;-70
2021/07/31 01:51:09;;;;;;;5.67;2.00;;;17.00;99.90;;;;;;5033373;28;20388;-70
2021/07/31 01:53:34;;;;;;;4.03;1.33;;;17.00;99.90;;;;;;5033181;28;20157;-71
2021/07/31 01:56:00;;;;;;;2.47;1.43;;;17.00;99.90;;;;;;5031926;28;20153;-71
2021/07/31 01:58:25;;;;;;;2.53;1.27;;;17.00;99.90;;;;;;5032375;28;20638;-70
2021/07/31 02:00:53;;;;;;;2.50;1.03;;;17.00;99.90;;;;;;5037914;28;20268;-71
2021/07/31 02:03:19;;;;;;;2.47;1.30;;;17.00;99.90;;;;;;5051877;28;20574;-70
2021/07/31 02:05:45;;;;;;;2.73;1.53;;;16.90;99.90;;;;;;5053116;28;20435;-71
2021/07/31 02:08:11;;;;;;;1.13;1.00;;;17.00;99.90;;;;;;5052113;28;20294;-70
2021/07/31 02:10:36;;;;;;;1.40;1.07;;;16.90;99.90;;;;;;5052306;28;20829;-72
2021/07/31 02:13:02;;;;;;;1.23;1.13;;;16.90;99.90;;;;;;5051666;28;20184;-72
2021/07/31 02:15:27;;;;;;;4.97;1.20;;;16.90;99.90;;;;;;5052722;28;20342;-72
2021/07/31 02:17:53;;;;;;;1.80;0.90;;;16.90;99.90;;;;;;5054464;28;20255;-72
2021/07/31 02:20:18;;;;;;;1.33;1.20;;;16.80;99.90;;;;;;5055565;28;20238;-72
2021/07/31 02:22:44;;;;;;;2.23;1.13;;;16.80;99.90;;;;;;5055721;28;20228;-72
2021/07/31 02:25:10;;;;;;;1.40;1.30;;;16.80;99.90;;;;;;5055399;28;20183;-72
2021/07/31 02:27:35;;;;;;;2.60;1.60;;;16.90;99.90;;;;;;5055014;28;20632;-72
2021/07/31 02:30:01;;;;;;;1.87;1.40;;;16.80;99.90;;;;;;5055273;28;20156;-72
2021/07/31 02:32:26;;;;;;;4.37;1.90;;;16.80;99.90;;;;;;5054296;28;20587;-72
2021/07/31 02:34:52;;;;;;;3.20;1.63;;;16.80;99.90;;;;;;5054208;28;20183;-72
2021/07/31 02:37:17;;;;;;;3.60;1.43;;;16.80;99.90;;;;;;5037847;28;20267;-72
2021/07/31 02:39:43;;;;;;;2.40;1.43;;;16.80;99.90;;;;;;5035070;28;20187;-72
2021/07/31 02:42:08;;;;;;;1.73;1.17;;;16.80;99.90;;;;;;5035494;28;20168;-70
2021/07/31 02:44:35;;;;;;;1.70;1.50;;;16.80;99.90;;;;;;5034870;28;20610;-70
2021/07/31 02:47:00;;;;;;;3.57;1.13;;;16.80;99.90;;;;;;5034978;28;20630;-70
2021/07/31 02:49:26;;;;;;;2.50;1.40;;;16.70;99.90;;;;;;5035265;28;20419;-70
2021/07/31 02:51:52;;;;;;;2.70;1.37;;;16.70;99.90;;;;;;5035320;28;20180;-69
2021/07/31 02:54:18;;;;;;;2.00;1.27;;;16.70;99.90;;;;;;5034890;28;20157;-70
2021/07/31 02:56:43;;;;;;;4.13;1.23;;;16.70;99.90;;;;;;5034689;28;20483;-70
2021/07/31 02:59:09;;;;;;;1.33;1.13;;;16.70;99.90;;;;;;5034538;28;20192;-69
2021/07/31 03:01:35;;;;;;;5.17;1.50;;;16.70;99.90;;;;;;5034534;28;20165;-70
2021/07/31 03:04:00;;;;;;;1.40;1.27;;;16.80;99.90;;;;;;5034551;28;20169;-70
2021/07/31 03:06:26;;;;;;;4.37;1.17;;;16.70;99.90;;;;;;5035304;28;20223;-69
2021/07/31 03:08:51;;;;;;;2.50;1.10;;;16.70;99.90;;;;;;5034874;28;20201;-70
2021/07/31 03:11:17;;;;;;;2.70;1.57;;;16.70;99.90;;;;;;5034468;28;20157;-70
2021/07/31 03:13:42;;;;;;;2.60;1.00;;;16.80;99.90;;;;;;5034386;28;20634;-70
2021/07/31 03:16:08;;;;;;;1.47;1.37;;;16.70;99.90;;;;;;5034309;28;20157;-70
2021/07/31 03:18:34;;;;;;;1.40;1.30;;;16.70;99.90;;;;;;5034317;28;20581;-70
2021/07/31 03:20:59;;;;;;;1.37;1.20;;;16.70;99.90;;;;;;5034597;28;20367;-70
2021/07/31 03:23:25;;;;;;;1.53;1.30;;;16.70;99.90;;;;;;5034796;28;20260;-70
2021/07/31 03:26:06;;;;;;;1.67;1.10;;;16.70;99.90;;;;;;5034774;28;20173;-69
2021/07/31 03:28:32;;;;;;;2.13;1.40;;;16.70;99.90;;;;;;5033918;28;20971;-70
2021/07/31 03:30:58;;;;;;;1.73;1.17;;;16.70;99.90;;;;;;5034016;28;20392;-70
2021/07/31 03:33:24;;;;;;;1.57;1.20;;;16.70;99.90;;;;;;5034167;28;20515;-69
2021/07/31 03:35:52;;;;;;;1.30;0.90;;;16.70;99.90;;;;;;5033855;28;20419;-70
2021/07/31 03:38:18;;;;;;;2.13;1.20;;;16.70;99.90;;;;;;5034010;28;20793;-70
2021/07/31 03:40:44;;;;;;;2.00;1.23;;;16.70;99.90;;;;;;5034409;28;20408;-70
2021/07/31 03:43:12;;;;;;;2.50;1.40;;;16.70;99.90;;;;;;5034382;28;20418;-70
2021/07/31 03:45:37;;;;;;;3.37;1.33;;;16.70;99.90;;;;;;5033697;28;20392;-70
2021/07/31 03:48:03;;;;;;;1.47;1.37;;;16.70;99.90;;;;;;5033653;28;20998;-69
2021/07/31 03:50:29;;;;;;;1.70;1.60;;;16.60;99.90;;;;;;5033693;28;20157;-70
2021/07/31 03:52:54;;;;;;;1.53;1.43;;;16.60;99.90;;;;;;5033690;28;20157;-70
2021/07/31 03:55:20;;;;;;;3.20;1.60;;;16.60;99.90;;;;;;5033806;28;20161;-70
2021/07/31 03:57:45;;;;;;;3.13;1.53;;;16.60;99.90;;;;;;5034184;28;20188;-70
2021/07/31 04:00:11;;;;;;;1.53;1.17;;;16.50;99.90;;;;;;5033956;28;20743;-70
2021/07/31 04:02:37;;;;;;;4.37;1.73;;;16.50;99.90;;;;;;5033658;28;20311;-69
2021/07/31 04:05:02;;;;;;;1.43;1.03;;;16.50;99.90;;;;;;5033934;28;20553;-69
2021/07/31 04:07:29;;;;;;;1.17;1.00;;;16.50;99.90;;;;;;5033422;28;20212;-70
2021/07/31 04:09:55;;;;;;;1.60;1.30;;;16.50;99.90;;;;;;5033388;28;20287;-69
2021/07/31 04:12:20;;;;;;;2.27;1.40;;;16.50;99.90;;;;;;5033481;28;20439;-70
2021/07/31 04:14:46;;;;;;;2.50;1.40;;;16.50;99.90;;;;;;5033710;28;20173;-70
2021/07/31 04:17:12;;;;;;;1.73;1.43;;;16.50;99.90;;;;;;5033630;28;20179;-69
2021/07/31 04:19:38;;;;;;;2.60;1.50;;;16.50;99.90;;;;;;5033510;28;20161;-69
2021/07/31 04:22:04;;;;;;;1.53;1.20;;;16.50;99.90;;;;;;5033119;28;20157;-70
2021/07/31 04:24:30;;;;;;;1.77;1.50;;;16.60;99.90;;;;;;5033294;28;20473;-70
2021/07/31 04:26:55;;;;;;;2.97;1.40;;;16.60;99.90;;;;;;5033171;28;20158;-70
2021/07/31 04:29:21;;;;;;;1.63;1.43;;;16.60;99.90;;;;;;5032927;28;20157;-69
2021/07/31 04:31:47;;;;;;;1.47;1.33;;;16.60;99.90;;;;;;5033386;28;20179;-69
2021/07/31 04:34:13;;;;;;;1.33;1.10;;;16.60;99.90;;;;;;5033640;28;20411;-70
2021/07/31 04:36:39;;;;;;;1.97;1.40;;;16.60;99.90;;;;;;5033067;28;20184;-69
2021/07/31 04:39:05;;;;;;;4.60;1.23;;;16.70;99.90;;;;;;5032647;28;20561;-69
2021/07/31 04:41:31;;;;;;;2.10;1.20;;;16.70;99.90;;;;;;5032933;28;20165;-69
2021/07/31 04:43:57;;;;;;;3.80;1.73;;;16.70;99.90;;;;;;5032648;28;20396;-70
2021/07/31 04:46:22;;;;;;;1.47;1.23;;;16.70;99.90;;;;;;5032931;28;20173;-69
2021/07/31 04:48:48;;;;;;;1.47;1.20;;;16.80;99.90;;;;;;5033785;28;20293;-70
2021/07/31 04:51:14;;;;;;;2.53;1.60;;;16.80;99.90;;;;;;5033404;28;20545;-70
2021/07/31 04:53:39;;;;;;;1.23;1.07;;;16.80;99.90;;;;;;5032557;28;20156;-70
2021/07/31 04:56:05;;;;;;;2.63;1.67;;;16.80;99.90;;;;;;5041959;28;20172;-70
2021/07/31 04:58:31;;;;;;;3.43;1.97;;;16.80;99.90;;;;;;5052367;28;20196;-70
2021/07/31 05:00:59;;;;;;;2.80;1.40;;;16.80;99.90;;;;;;5053602;28;20163;-69
2021/07/31 05:03:26;;;;;;;1.80;1.40;;;16.80;99.90;;;;;;5053168;28;20559;-70
2021/07/31 05:05:51;;;;;;;1.63;1.40;;;16.90;99.90;;;;;;5039362;28;20758;-70
2021/07/31 05:08:17;;;;;;;2.90;1.57;;;16.90;99.90;;;;;;5033043;28;20458;-70
2021/07/31 05:10:45;;;;;;;1.77;1.43;;;16.90;99.90;;;;;;5032608;28;20614;-70
2021/07/31 05:13:11;;;;;;;4.83;1.90;;;16.90;99.90;;;;;;5032569;28;20236;-69
2021/07/31 05:15:38;;;;;;;3.43;1.40;;;17.00;99.90;;;;;;5033108;28;20427;-69
2021/07/31 05:18:04;;;;;;;3.10;1.53;;;17.00;99.90;;;;;;5033225;28;20247;-69
2021/07/31 05:20:30;;;;;;;1.73;1.37;;;17.10;99.90;;;;;;5032444;28;20415;-69
2021/07/31 05:22:55;;;;;;;2.43;1.80;;;17.10;99.90;;;;;;5032853;28;20925;-70
2021/07/31 05:25:21;;;;;;;1.90;1.53;;;17.10;99.90;;;;;;5033051;28;20181;-70
2021/07/31 05:27:46;;;;;;;3.73;1.93;;;17.10;99.90;;;;;;5032348;28;20314;-69
2021/07/31 05:30:12;;;;;;;1.83;1.40;;;17.10;99.90;;;;;;5033359;28;20177;-69
2021/07/31 05:32:38;;;;;;;1.40;1.30;;;17.10;99.90;;;;;;5032866;28;20252;-69
2021/07/31 05:35:04;;;;;;;2.27;1.53;;;17.10;99.90;;;;;;5032111;28;20169;-70
2021/07/31 05:37:31;;;;;;;2.90;1.90;;;17.10;99.90;;;;;;5032565;28;20180;-70
2021/07/31 05:39:59;;;;;;;2.00;1.77;;;17.10;99.90;;;;;;5032872;28;20418;-69
2021/07/31 05:42:24;;;;;;;2.90;2.43;;;17.10;99.90;;;;;;5032866;28;20407;-69
2021/07/31 05:44:56;;;;;;;2.40;1.60;;;17.10;99.90;;;;;;5032482;28;20404;-70
2021/07/31 05:47:24;;;;;;;2.17;1.53;;;17.10;99.90;;;;;;5032303;28;20185;-70
2021/07/31 05:49:50;;;;;;;2.87;1.57;;;17.10;99.90;;;;;;5032955;28;20414;-70
2021/07/31 05:52:16;;;;;;;1.17;1.07;;;17.10;99.90;;;;;;5036052;28;20426;-70
2021/07/31 05:54:42;;;;;;;3.83;1.87;;;17.20;99.90;;;;;;5035944;28;20897;-70
2021/07/31 05:57:07;;;;;;;7.13;2.20;;;17.20;99.90;;;;;;5036917;28;20263;-70
2021/07/31 05:59:33;;;;;;;4.00;1.70;;;17.20;99.90;;;;;;5036622;28;20201;-70
2021/07/31 06:01:58;;;;;;;3.13;1.70;;;17.30;99.90;;;;;;5035982;28;20207;-70
2021/07/31 06:04:24;;;;;;;3.20;1.40;;;17.20;99.90;;;;;;5035723;28;20179;-70
2021/07/31 06:06:49;;;;;;;2.07;1.40;;;17.30;99.90;;;;;;5035708;28;20184;-70
2021/07/31 06:09:15;;;;;;;1.90;1.50;;;17.30;99.90;;;;;;5035577;28;20540;-70
2021/07/31 06:11:40;;;;;;;7.00;1.90;;;17.30;99.90;;;;;;5037208;28;20153;-70
2021/07/31 06:14:06;;;;;;;2.90;1.40;;;17.30;99.90;;;;;;5036592;28;20169;-70
2021/07/31 06:16:31;;;;;;;2.30;1.50;;;17.30;99.90;;;;;;5036206;28;20543;-70
2021/07/31 06:18:57;;;;;;;4.10;2.03;;;17.40;99.90;;;;;;5035303;28;20204;-70
2021/07/31 06:21:23;;;;;;;4.80;1.33;;;17.40;99.90;;;;;;5035370;28;20172;-70
2021/07/31 06:23:48;;;;;;;4.57;1.70;;;17.40;99.90;;;;;;5035318;28;20881;-70
2021/07/31 06:26:14;;;;;;;2.30;1.60;;;17.40;99.90;;;;;;5037918;28;20168;-70
2021/07/31 06:28:40;;;;;;;2.67;1.47;;;17.50;99.90;;;;;;5035613;28;20200;-70
2021/07/31 06:31:07;;;;;;;2.00;1.77;;;17.50;99.90;;;;;;5035762;28;20185;-70
2021/07/31 06:33:33;;;;;;;2.40;1.67;;;17.60;99.90;;;;;;5035515;28;20169;-70
2021/07/31 06:35:58;;;;;;;2.40;2.10;;;17.60;99.90;;;;;;5035356;28;20761;-70
2021/07/31 06:38:24;;;;;;;3.30;1.27;;;17.70;99.90;;;;;;5035218;28;20622;-70
2021/07/31 06:40:49;;;;;;;1.50;1.40;;;17.60;99.90;;;;;;5035062;28;20169;-70
2021/07/31 06:43:15;;;;;;;3.70;1.60;;;17.60;99.90;;;;;;5035322;28;20177;-70
2021/07/31 06:45:41;;;;;;;3.33;2.93;;;17.60;99.90;;;;;;5035065;28;20169;-70
2021/07/31 06:48:06;;;;;;;2.30;1.67;;;17.60;99.90;;;;;;5035476;28;20193;-71
2021/07/31 06:50:32;;;;;;;5.80;2.20;;;17.70;99.90;;;;;;5035428;28;20409;-70
2021/07/31 06:52:57;;;;;;;3.17;1.70;;;17.70;99.90;;;;;;5035190;28;20632;-70
2021/07/31 06:55:24;;;;;;;6.40;2.17;;;17.70;99.90;;;;;;5034947;28;20590;-70
2021/07/31 06:57:49;;;;;;;1.40;1.30;;;17.90;99.90;;;;;;5035448;28;20169;-70
2021/07/31 07:00:15;;;;;;;3.03;1.83;;;18.00;99.90;;;;;;5034481;28;20515;-70
2021/07/31 07:02:40;;;;;;;2.50;1.37;;;18.10;99.90;;;;;;5034529;28;20516;-70
2021/07/31 07:05:06;;;;;;;1.90;1.60;;;18.20;99.90;;;;;;5035308;28;20180;-71
2021/07/31 07:07:32;;;;;;;1.73;1.50;;;18.20;99.90;;;;;;5034922;28;20307;-70
2021/07/31 07:09:57;;;;;;;2.93;1.43;;;18.30;99.90;;;;;;5034793;28;20159;-70
2021/07/31 07:12:23;;;;;;;2.03;1.30;;;18.30;99.90;;;;;;5034793;28;20165;-70
2021/07/31 07:14:48;;;;;;;2.13;1.67;;;18.40;99.90;;;;;;5034544;28;20160;-70
2021/07/31 07:17:14;;;;;;;2.13;1.50;;;18.50;99.90;;;;;;5034480;28;20172;-70
2021/07/31 07:19:39;;;;;;;2.50;1.50;;;18.50;99.90;;;;;;5034729;28;20175;-70
2021/07/31 07:22:05;;;;;;;2.97;1.20;;;18.60;99.90;;;;;;5035068;28;20173;-70
2021/07/31 07:24:34;;;;;;;3.07;2.00;;;18.80;99.90;;;;;;5034960;28;20192;-70
2021/07/31 07:27:00;;;;;;;2.70;1.97;;;18.90;99.90;;;;;;5034665;28;20168;-71
2021/07/31 07:29:25;;;;;;;3.60;1.50;;;18.90;99.90;;;;;;5034182;28;20822;-70
2021/07/31 07:31:51;;;;;;;2.10;1.57;;;19.00;99.90;;;;;;5034197;28;20171;-70
2021/07/31 07:34:16;;;;;;;1.67;1.57;;;19.00;99.90;;;;;;5033955;28;20262;-70
2021/07/31 07:36:42;;;;;;;2.17;1.90;;;19.00;99.90;;;;;;5034064;28;20511;-70
2021/07/31 07:39:08;;;;;;;3.07;1.50;;;19.00;99.90;;;;;;5049005;28;20176;-70
2021/07/31 07:41:33;;;;;;;1.87;1.50;;;19.10;99.90;;;;;;5053329;28;20512;-71
2021/07/31 07:43:59;;;;;;;1.53;1.03;;;19.10;99.90;;;;;;5053780;28;20343;-70
2021/07/31 07:46:24;;;;;;;1.60;1.40;;;19.10;99.90;;;;;;5053978;28;20174;-70
2021/07/31 07:48:50;;;;;;;1.47;1.37;;;19.10;99.90;;;;;;5053690;28;20195;-70
2021/07/31 07:51:16;;;;;;;2.27;1.67;;;19.10;99.90;;;;;;5053673;28;20160;-70
2021/07/31 07:53:42;;;;;;;3.30;1.37;;;19.10;99.90;;;;;;5053647;28;20156;-70
2021/07/31 07:56:07;;;;;;;3.10;1.90;;;19.10;99.90;;;;;;5053172;28;20172;-70
2021/07/31 07:58:33;;;;;;;2.63;1.77;;;19.20;99.90;;;;;;5052531;28;20257;-71
2021/07/31 08:00:58;;;;;;;1.70;1.43;;;19.20;99.90;;;;;;5053691;28;20160;-70
2021/07/31 08:03:24;;;;;;;1.83;1.00;;;19.30;99.90;;;;;;5053194;28;20210;-70
2021/07/31 08:05:50;;;;;;;1.33;1.20;;;19.30;99.90;;;;;;5053433;28;20247;-70
2021/07/31 08:08:15;;;;;;;3.57;1.97;;;19.50;99.90;;;;;;5053087;28;20699;-70
2021/07/31 08:10:41;;;;;;;2.43;1.50;;;19.50;99.90;;;;;;5053810;28;20158;-71
2021/07/31 08:13:06;;;;;;;1.67;1.20;;;19.60;99.90;;;;;;5051699;28;20637;-71
2021/07/31 08:15:32;;;;;;;1.97;1.63;;;19.50;99.90;;;;;;5052546;28;20229;-71
2021/07/31 08:17:58;;;;;;;1.70;1.50;;;19.40;99.90;;;;;;5053455;28;20160;-70
2021/07/31 08:20:24;;;;;;;2.73;1.33;;;19.50;99.90;;;;;;5053188;28;20395;-70
2021/07/31 08:22:50;;;;;;;4.57;1.40;;;19.50;99.90;;;;;;5053267;28;20407;-70
2021/07/31 08:25:16;;;;;;;1.20;1.07;;;19.70;99.90;;;;;;5053381;28;20202;-70
2021/07/31 08:27:41;;;;;;;4.60;2.90;;;20.00;99.90;;;;;;5052794;28;20188;-70
2021/07/31 08:30:08;;;;;;;1.93;1.60;;;20.20;99.90;;;;;;5051872;28;20410;-71
2021/07/31 08:32:34;;;;;;;3.07;1.40;;;20.50;99.90;;;;;;5040749;28;20254;-70
2021/07/31 08:35:00;;;;;;;1.77;1.53;;;20.90;99.90;;;;;;5032888;28;20444;-70
2021/07/31 08:37:27;;;;;;;1.97;1.53;;;21.10;99.90;;;;;;5033381;28;20207;-70
2021/07/31 08:39:53;;;;;;;2.30;1.17;;;21.50;99.90;;;;;;5033259;28;20445;-71
2021/07/31 08:42:19;;;;;;;1.40;1.07;;;22.50;99.90;;;;;;5033358;28;20408;-71
2021/07/31 08:44:44;;;;;;;2.77;1.40;;;23.30;99.90;;;;;;5032841;28;20398;-71
2021/07/31 08:47:13;;;;;;;6.90;1.37;;;23.50;99.90;;;;;;5033284;28;20688;-71
2021/07/31 08:49:42;;;;;;;1.47;1.10;;;23.40;98.40;;;;;;5033580;28;20226;-71
2021/07/31 08:52:08;;;;;;;1.10;1.00;;;23.00;98.40;;;;;;5032802;28;20388;-71
2021/07/31 08:54:38;;;;;;;2.00;1.10;;;22.70;98.90;;;;;;5032816;28;20387;-71
2021/07/31 08:57:04;;;;;;;2.57;1.70;;;22.30;98.70;;;;;;5032763;28;20566;-71
2021/07/31 08:59:30;;;;;;;1.27;1.17;;;21.90;99.20;;;;;;5032585;28;20439;-71
2021/07/31 09:01:56;;;;;;;4.90;1.63;;;21.60;99.90;;;;;;5032568;28;20877;-71
2021/07/31 09:04:23;;;;;;;2.17;2.07;;;21.50;99.90;;;;;;5033188;28;20701;-71
2021/07/31 09:06:50;;;;;;;1.43;1.17;;;21.30;99.90;;;;;;5033182;28;20454;-71
2021/07/31 09:09:24;;;;;;;3.10;1.23;;;21.00;99.90;;;;;;5032400;28;20491;-71
2021/07/31 09:12:10;;;;;;;1.90;1.00;;;20.90;99.90;;;;;;5032557;28;20813;-71
2021/07/31 09:14:44;;;;;;;1.40;1.30;;;20.90;99.90;;;;;;5031647;28;20443;-71
2021/07/31 09:17:22;;;;;;;3.93;2.00;;;20.90;99.90;;;;;;5032485;28;20403;-71
2021/07/31 09:19:47;;;;;;;1.80;1.70;;;20.80;99.90;;;;;;5032950;28;20412;-70
2021/07/31 09:22:13;;;;;;;3.53;1.80;;;20.80;99.90;;;;;;5033049;28;20388;-71
2021/07/31 09:24:38;;;;;;;1.83;1.30;;;20.70;99.90;;;;;;5034985;28;20330;-71
2021/07/31 09:27:23;;;;;;;1.90;1.43;;;20.60;99.90;;;;;;5036431;28;20635;-71
2021/07/31 09:30:00;;;;;;;4.20;1.30;;;20.50;99.90;;;;;;5036388;28;20160;-71
2021/07/31 09:32:37;;;;;;;2.37;2.10;;;20.40;99.90;;;;;;5036163;28;20450;-70
2021/07/31 09:35:17;;;;;;;2.13;1.93;;;20.30;99.90;;;;;;5036414;28;20395;-71
2021/07/31 09:37:48;;;;;;;3.93;1.40;;;20.30;99.90;;;;;;5036913;28;20426;-71
2021/07/31 09:40:14;;;;;;;1.97;1.37;;;20.60;99.90;;;;;;5036766;28;20469;-70
2021/07/31 09:42:41;;;;;;;1.83;1.20;;;21.10;99.90;;;;;;5036124;28;20407;-71
2021/07/31 09:53:18;;;;;;;1.50;1.20;;;21.40;99.90;;;;;;5069714;28;20573;-72
2021/07/31 09:55:46;;;;;;;1.37;1.07;;;21.30;99.90;;;;;;5029939;28;20406;-72
2021/07/31 09:58:14;;;;;;;3.53;1.27;;;21.30;99.90;;;;;;5047230;28;20472;-72
2021/07/31 10:00:42;;;;;;;2.20;1.00;;;21.60;99.90;;;;;;5049819;28;20390;-72
2021/07/31 10:03:10;;;;;;;2.13;1.27;;;22.10;99.90;;;;;;5049769;28;20452;-72
2021/07/31 10:05:39;;;;;;;3.77;1.53;;;22.40;99.90;;;;;;5049568;28;20788;-72
2021/07/31 10:08:06;;;;;;;3.23;2.03;;;22.60;99.90;;;;;;5049615;28;20429;-72
2021/07/31 10:10:32;;;;;;;3.10;1.57;;;22.60;99.90;;;;;;5049329;28;20419;-72
2021/07/31 10:12:58;;;;;;;1.97;1.30;;;22.60;99.90;;;;;;5049568;28;21025;-72
2021/07/31 10:15:25;;;;;;;2.37;1.60;;;22.50;99.90;;;;;;5049352;28;20575;-72
2021/07/31 10:17:51;;;;;;;5.73;1.57;;;22.40;99.90;;;;;;5049721;28;20821;-72
2021/07/31 10:23:02;;;;;;;2.80;1.30;;;22.20;99.90;;;;;;5069866;28;20917;-70
2021/07/31 10:25:27;;;;;;;1.77;1.60;;;21.80;99.90;;;;;;5069929;28;20412;-70
2021/07/31 10:28:28;;;;;;;1.43;1.13;;;21.60;99.90;;;;;;5064679;28;20217;-70
2021/07/31 10:31:14;;;;;;;1.50;1.40;;;21.50;99.90;;;;;;5054436;28;20573;-70
2021/07/31 10:33:45;;;;;;;3.13;1.43;;;21.30;99.90;;;;;;5049308;28;20403;-70
2021/07/31 10:36:31;;;;;;;1.50;1.40;;;21.30;99.90;;;;;;5050180;28;20730;-70
2021/07/31 10:38:59;;;;;;;2.13;1.33;;;21.30;99.90;;;;;;5048742;28;20383;-70
2021/07/31 10:42:02;;;;;;;2.33;1.60;;;21.40;99.90;;;;;;5049465;28;20438;-70
2021/07/31 10:44:29;;;;;;;2.43;1.27;;;21.60;99.90;;;;;;5049165;28;20383;-70
2021/07/31 10:58:27;;;;;;;3.50;1.53;;;22.20;99.90;;;;;;5069710;28;20630;-70
2021/07/31 11:01:20;;;;;;;1.40;1.13;;;21.70;99.90;;;;;;5069707;28;20417;-70
2021/07/31 11:03:46;;;;;;;4.13;2.70;;;21.60;99.90;;;;;;5049238;28;20394;-70
2021/07/31 11:06:12;;;;;;;1.33;1.00;;;21.70;99.90;;;;;;5050460;28;20814;-70
2021/07/31 11:11:25;;;;;;;1.50;1.27;;;21.70;99.90;;;;;;5069925;28;20512;-73
2021/07/31 11:13:53;;;;;;;1.60;1.10;;;21.80;99.40;;;;;;5070003;28;20906;-73
2021/07/31 11:18:59;;;;;;;1.20;1.10;;;21.70;98.60;;;;;;5064257;28;20555;-71
2021/07/31 11:21:28;;;;;;;2.23;1.40;;;21.60;99.90;;;;;;5049833;28;20391;-71
2021/07/31 11:32:13;;;;;;;1.37;1.20;;;21.70;99.60;;;;;;5085561;27;21071;-71
2021/07/31 11:34:45;;;;;;;4.20;2.23;;;22.00;99.70;;;;;;5070172;28;20410;-71
2021/07/31 11:37:12;;;;;;;2.23;1.10;;;22.20;99.90;;;;;;5052773;28;20416;-71
2021/07/31 11:39:38;;;;;;;2.40;1.33;;;22.30;99.40;;;;;;5048993;28;20421;-71
2021/07/31 11:42:05;;;;;;;3.87;1.00;;;22.50;98.40;;;;;;5050048;28;20383;-71
2021/07/31 11:44:33;;;;;;;2.23;1.30;;;22.60;98.30;;;;;;5050671;28;20478;-71
2021/07/31 11:47:00;;;;;;;2.13;1.30;;;22.80;99.10;;;;;;5050295;28;20406;-71
2021/07/31 11:49:28;;;;;;;3.83;1.07;;;22.90;99.10;;;;;;5049702;28;20473;-71
2021/07/31 11:51:56;;;;;;;2.80;1.20;;;23.00;99.20;;;;;;5049574;28;20402;-71
2021/07/31 11:54:22;;;;;;;5.50;1.70;;;23.00;97.90;;;;;;5048735;28;20905;-71
2021/07/31 11:56:48;;;;;;;1.90;1.33;;;23.00;98.80;;;;;;5048661;28;20419;-71
2021/07/31 11:59:23;;;;;;;1.80;1.23;;;23.00;98.10;;;;;;5049887;28;20426;-71
2021/07/31 12:01:52;;;;;;;3.20;1.60;;;23.00;98.60;;;;;;5049938;28;20386;-71
2021/07/31 12:04:42;;;;;;;1.70;1.17;;;23.00;97.60;;;;;;5049446;28;20410;-71
2021/07/31 12:07:13;;;;;;;2.63;1.40;;;23.10;97.90;;;;;;5048377;28;20453;-71
2021/07/31 12:09:40;;;;;;;2.70;1.50;;;23.20;97.20;;;;;;5048232;28;20478;-71
2021/07/31 12:12:23;;;;;;;3.00;1.37;;;23.30;97.40;;;;;;5049473;28;20743;-71
2021/07/31 12:20:42;;;;;;;2.40;1.57;;;23.40;96.60;;;;;;5069617;28;21053;-70
2021/07/31 12:23:10;;;;;;;2.63;2.20;;;23.40;97.50;;;;;;5069937;28;20540;-70
2021/07/31 12:25:37;;;;;;;4.03;2.07;;;23.40;98.40;;;;;;5069898;28;20886;-70
2021/07/31 12:30:42;;;;;;;1.97;1.77;;;23.40;99.80;;;;;;5064735;28;20533;-70
2021/07/31 12:35:48;;;;;;;1.40;1.20;;;23.50;97.50;;;;;;5069703;28;20637;-70
2021/07/31 12:40:54;;;;;;;1.60;1.20;;;23.60;98.70;;;;;;5131799;27;20516;-70
2021/07/31 12:43:19;;;;;;;1.50;1.40;;;23.40;96.20;;;;;;5130428;28;20390;-70
2021/07/31 12:45:46;;;;;;;3.77;1.37;;;23.40;97.20;;;;;;5110966;28;20396;-70
2021/07/31 12:48:13;;;;;;;2.30;1.20;;;23.50;97.10;;;;;;5110694;28;20635;-70
2021/07/31 12:50:39;;;;;;;1.83;1.73;;;23.40;98.50;;;;;;5110178;28;20388;-70
2021/07/31 12:53:05;;;;;;;2.10;1.40;;;23.40;96.50;;;;;;5110381;28;20925;-70
2021/07/31 12:55:31;;;;;;;2.70;1.80;;;23.20;96.70;;;;;;5110984;28;20446;-70
2021/07/31 12:57:57;;;;;;;2.70;1.90;;;23.10;97.90;;;;;;5110535;28;20393;-70
2021/07/31 13:00:23;;;;;;;2.57;2.00;;;23.00;98.20;;;;;;5129665;27;20253;-70
2021/07/31 13:02:48;;;;;;;1.37;1.27;;;23.00;97.00;;;;;;5130380;28;20173;-70
2021/07/31 13:05:15;;;;;;;1.93;1.73;;;22.90;97.00;;;;;;5131004;27;20161;-70
2021/07/31 13:07:41;;;;;;;1.60;1.50;;;22.80;96.50;;;;;;5130383;28;20162;-70
2021/07/31 13:10:07;;;;;;;2.73;2.53;;;22.60;96.50;;;;;;5130376;28;20409;-70
2021/07/31 13:12:33;;;;;;;1.90;1.73;;;22.50;97.60;;;;;;5130656;28;20740;-71
2021/07/31 13:14:59;;;;;;;2.78;1.67;;;22.40;97.00;;;;;;5130377;28;20425;-70
2021/07/31 13:17:25;;;;;;;3.13;1.93;;;22.30;97.90;;;;;;5130664;27;20276;-70
2021/07/31 13:19:50;;;;;;;2.30;2.03;;;22.30;98.40;;;;;;5130061;28;20195;-70
2021/07/31 13:22:16;;;;;;;2.93;2.43;;;22.20;98.10;;;;;;5130600;27;20634;-70
2021/07/31 13:24:42;;;;;;;3.80;3.07;;;22.10;98.10;;;;;;5130137;28;20157;-70
2021/07/31 13:27:08;;;;;;;2.67;2.30;;;22.00;99.00;;;;;;5130474;28;20207;-70
2021/07/31 13:29:33;;;;;;;5.80;1.55;;;22.00;97.90;;;;;;5129831;27;20429;-70
2021/07/31 13:32:02;;;;;;;3.17;2.50;;;22.10;98.90;;;;;;5129982;28;20158;-70
2021/07/31 13:34:29;;;;;;;2.50;2.30;;;22.20;98.20;;;;;;5130546;27;20661;-70
2021/07/31 13:36:58;;;;;;;2.73;1.73;;;22.30;98.70;;;;;;5130051;28;20412;-70